createdAt,value
2023-02-02T00:02:01.056Z,97561.03
2023-02-02T00:04:35.179Z,97563.75
2023-02-02T00:07:07.918Z,97562.56
2023-02-02T00:09:37.813Z,97541.09
2023-02-02T00:12:09.173Z,97540.31
2023-02-02T00:14:39.403Z,97535.25
2023-02-02T00:17:11.530Z,97530.56
2023-02-02T00:19:43.782Z,97526.03
2023-02-02T00:22:14.169Z,97526.00
2023-02-02T00:24:44.482Z,97523.72
2023-02-02T00:27:15.323Z,97534.00
2023-02-02T00:29:46.357Z,97532.47
2023-02-02T00:32:16.640Z,97533.94
2023-02-02T00:34:49.857Z,97536.69
2023-02-02T00:37:19.957Z,97539.78
2023-02-02T00:39:50.596Z,97537.81
2023-02-02T00:42:21.299Z,97535.97
2023-02-02T00:45:09.406Z,97537.53
2023-02-02T00:47:39.453Z,97527.97
2023-02-02T00:50:15.009Z,97530.38
2023-02-02T00:52:45.476Z,97525.00
2023-02-02T00:55:17.556Z,97533.41
2023-02-02T00:57:48.150Z,97518.41
2023-02-02T01:00:21.184Z,97523.00
2023-02-02T01:02:51.820Z,97518.00
2023-02-02T01:05:25.060Z,97505.72
2023-02-02T01:07:55.827Z,97508.81
2023-02-02T01:10:26.794Z,97516.44
2023-02-02T01:12:56.878Z,97517.59
2023-02-02T01:15:27.539Z,97513.81
2023-02-02T01:17:58.323Z,97517.69
2023-02-02T01:20:29.894Z,97521.56
2023-02-02T01:23:00.384Z,97522.72
2023-02-02T01:25:32.852Z,97526.56
2023-02-02T01:28:03.619Z,97530.41
2023-02-02T01:30:33.769Z,97535.41
2023-02-02T01:33:04.345Z,97538.91
2023-02-02T01:35:36.781Z,97531.53
2023-02-02T01:38:06.829Z,97521.50
2023-02-02T01:40:37.229Z,97512.38
2023-02-02T01:43:22.703Z,97506.97
2023-02-02T01:45:53.342Z,97499.25
2023-02-02T01:48:34.363Z,97490.84
2023-02-02T01:51:08.807Z,97491.59
2023-02-02T01:53:38.935Z,97501.59
2023-02-02T01:56:11.274Z,97511.22
2023-02-02T01:58:44.143Z,97505.03
2023-02-02T02:01:14.556Z,97508.47
2023-02-02T02:03:44.842Z,97491.91
2023-02-02T02:06:19.934Z,97482.72
2023-02-02T02:08:54.816Z,97491.97
2023-02-02T02:11:26.675Z,97487.34
2023-02-02T02:14:17.309Z,97491.16
2023-02-02T02:16:58.148Z,97480.75
2023-02-02T02:20:32.203Z,97481.56
2023-02-02T02:23:52.348Z,97480.00
2023-02-02T02:26:48.460Z,97473.88
2023-02-02T02:29:54.391Z,97477.31
2023-02-02T02:32:45.125Z,97481.16
2023-02-02T02:35:22.618Z,97483.50
2023-02-02T02:37:57.097Z,97478.09
2023-02-02T02:40:31.544Z,97467.72
2023-02-02T02:43:04.560Z,97473.06
2023-02-02T02:45:35.387Z,97466.94
2023-02-02T02:48:08.007Z,97466.97
2023-02-02T02:50:38.678Z,97460.78
2023-02-02T02:53:11.741Z,97466.91
2023-02-02T02:55:50.673Z,97478.44
2023-02-02T02:58:26.912Z,97470.78
2023-02-02T03:01:02.838Z,97469.28
2023-02-02T03:03:47.855Z,97468.09
2023-02-02T03:06:24.951Z,97468.09
2023-02-02T03:08:57.645Z,97458.84
2023-02-02T03:11:27.780Z,97455.00
2023-02-02T03:13:58.850Z,97450.00
2023-02-02T03:16:29.457Z,97454.63
2023-02-02T03:19:06.599Z,97463.81
2023-02-02T03:21:37.873Z,97455.41
2023-02-02T03:24:09.336Z,97452.31
2023-02-02T03:26:41.488Z,97439.22
2023-02-02T03:29:12.609Z,97441.94
2023-02-02T03:31:43.415Z,97446.19
2023-02-02T03:34:15.805Z,97443.13
2023-02-02T03:36:46.427Z,97450.03
2023-02-02T03:39:16.700Z,97450.06
2023-02-02T03:41:47.157Z,97446.94
2023-02-02T03:44:18.319Z,97444.66
2023-02-02T03:46:48.587Z,97441.59
2023-02-02T03:49:21.143Z,97438.47
2023-02-02T03:51:51.465Z,97430.44
2023-02-02T03:54:22.235Z,97429.28
2023-02-02T03:56:52.118Z,97440.81
2023-02-02T03:59:22.185Z,97435.44
2023-02-02T04:01:53.144Z,97423.09
2023-02-02T04:04:25.748Z,97423.03
2023-02-02T04:06:55.758Z,97425.75
2023-02-02T04:09:26.211Z,97423.84
2023-02-02T04:11:58.100Z,97420.06
2023-02-02T04:14:28.375Z,97415.44
2023-02-02T04:16:59.473Z,97415.41
2023-02-02T04:19:31.689Z,97417.31
2023-02-02T04:22:01.681Z,97410.78
2023-02-02T04:24:31.848Z,97417.69
2023-02-02T04:27:02.229Z,97420.78
2023-02-02T04:29:32.329Z,97425.03
2023-02-02T04:32:02.167Z,97446.97
2023-02-02T04:34:35.385Z,97450.81
2023-02-02T04:37:05.002Z,97455.44
2023-02-02T04:39:35.099Z,97466.59
2023-02-02T04:42:07.458Z,97476.25
2023-02-02T04:44:39.005Z,97482.38
2023-02-02T04:47:09.123Z,97485.44
2023-02-02T04:49:41.235Z,97505.41
2023-02-02T04:52:13.927Z,97504.69
2023-02-02T04:54:44.297Z,97515.06
2023-02-02T04:57:14.879Z,97508.56
2023-02-02T04:59:45.966Z,97527.81
2023-02-02T05:02:18.005Z,97531.59
2023-02-02T05:04:51.219Z,97540.84
2023-02-02T05:07:21.802Z,97555.81
2023-02-02T05:09:51.782Z,97560.00
2023-02-02T05:12:22.166Z,97564.63
2023-02-02T05:14:52.531Z,97560.00
2023-02-02T05:17:22.943Z,97556.13
2023-02-02T05:19:55.149Z,97546.47
2023-02-02T05:22:26.218Z,97543.72
2023-02-02T05:24:57.711Z,97539.06
2023-02-02T05:27:28.413Z,97539.44
2023-02-02T05:29:58.884Z,97546.34
2023-02-02T05:32:30.277Z,97548.22
2023-02-02T05:35:02.965Z,97549.75
2023-02-02T05:37:33.741Z,97545.13
2023-02-02T05:40:04.980Z,97546.66
2023-02-02T05:42:35.992Z,97558.88
2023-02-02T05:45:09.872Z,97556.00
2023-02-02T05:47:40.323Z,97548.22
2023-02-02T05:50:13.755Z,97553.66
2023-02-02T05:52:45.596Z,97563.31
2023-02-02T05:55:16.257Z,97567.06
2023-02-02T05:57:46.333Z,97575.31
2023-02-02T06:00:17.708Z,97589.22
2023-02-02T06:02:47.916Z,97596.00
2023-02-02T06:05:20.158Z,97604.06
2023-02-02T06:07:50.636Z,97603.78
2023-02-02T06:10:21.518Z,97597.69
2023-02-02T06:12:52.156Z,97592.19
2023-02-02T06:15:23.169Z,97607.25
2023-02-02T06:17:54.298Z,97598.41
2023-02-02T06:20:30.295Z,97623.72
2023-02-02T06:23:00.156Z,97645.19
2023-02-02T06:25:30.948Z,97649.97
2023-02-02T06:28:03.164Z,97666.63
2023-02-02T06:30:34.666Z,97664.97
2023-02-02T06:33:05.134Z,97652.50
2023-02-02T06:35:41.169Z,97673.72
2023-02-02T06:38:11.990Z,97677.38
2023-02-02T06:40:42.208Z,97683.28
2023-02-02T06:43:15.467Z,97689.75
2023-02-02T06:45:45.482Z,97684.69
2023-02-02T06:48:17.385Z,97686.91
2023-02-02T06:50:49.728Z,97683.31
2023-02-02T06:53:23.574Z,97682.59
2023-02-02T06:56:01.406Z,97681.28
2023-02-02T06:58:32.531Z,97689.53
2023-02-02T07:01:10.213Z,97689.94
2023-02-02T07:03:42.731Z,97704.31
2023-02-02T07:06:20.345Z,97711.47
2023-02-02T07:09:01.558Z,97713.28
2023-02-02T07:11:40.750Z,97711.47
2023-02-02T07:14:14.994Z,97711.03
2023-02-02T07:16:49.570Z,97712.81
2023-02-02T07:19:19.891Z,97717.91
2023-02-02T07:21:51.654Z,97717.16
2023-02-02T07:24:22.225Z,97719.00
2023-02-02T07:26:52.853Z,97732.38
2023-02-02T07:29:23.326Z,97737.25
2023-02-02T07:31:57.110Z,97744.72
2023-02-02T07:34:28.458Z,97745.06
2023-02-02T07:37:01.493Z,97745.13
2023-02-02T07:39:36.416Z,97747.22
2023-02-02T07:42:09.124Z,97739.38
2023-02-02T07:44:39.636Z,97740.75
2023-02-02T07:47:11.879Z,97750.34
2023-02-02T07:49:41.919Z,97756.53
2023-02-02T07:52:13.704Z,97756.44
2023-02-02T07:54:44.985Z,97755.41
2023-02-02T07:57:20.460Z,97759.50
2023-02-02T07:59:50.616Z,97758.22
2023-02-02T08:02:29.639Z,97757.53
2023-02-02T08:05:00.163Z,97767.97
2023-02-02T08:07:36.997Z,97771.38
2023-02-02T08:10:08.057Z,97769.75
2023-02-02T08:12:38.889Z,97774.75
2023-02-02T08:15:12.636Z,97775.13
2023-02-02T08:17:50.515Z,97784.19
2023-02-02T08:20:21.263Z,97776.75
2023-02-02T08:22:53.599Z,97779.84
2023-02-02T08:25:24.566Z,97777.41
2023-02-02T08:27:58.693Z,97778.91
2023-02-02T08:30:29.069Z,97780.34
2023-02-02T08:33:00.159Z,97788.81
2023-02-02T08:35:36.982Z,97788.50
2023-02-02T08:38:09.698Z,97790.22
2023-02-02T08:40:50.733Z,97794.31
2023-02-02T08:43:25.765Z,97809.13
2023-02-02T08:46:01.207Z,97819.63
2023-02-02T08:48:35.606Z,97830.78
2023-02-02T08:51:09.598Z,97830.25
2023-02-02T08:53:41.599Z,97826.88
2023-02-02T08:56:13.965Z,97822.69
2023-02-02T08:58:48.355Z,97829.59
2023-02-02T09:01:21.206Z,97836.47
2023-02-02T09:03:54.657Z,97846.09
2023-02-02T09:06:29.979Z,97854.94
2023-02-02T09:09:01.935Z,97854.22
2023-02-02T09:11:33.282Z,97866.00
2023-02-02T09:14:06.769Z,97867.44
2023-02-02T09:16:38.512Z,97866.69
2023-02-02T09:19:14.139Z,97861.03
2023-02-02T09:21:44.586Z,97866.28
2023-02-02T09:24:16.885Z,97871.88
2023-02-02T09:26:48.170Z,97870.69
2023-02-02T09:29:21.019Z,97864.88
2023-02-02T09:31:52.775Z,97867.22
2023-02-02T09:34:23.834Z,97875.19
2023-02-02T09:36:55.099Z,97875.41
2023-02-02T09:39:28.318Z,97876.75
2023-02-02T09:42:10.103Z,97883.16
2023-02-02T09:45:05.416Z,97875.06
2023-02-02T09:47:51.954Z,97884.34
2023-02-02T09:50:40.183Z,97885.84
2023-02-02T09:53:16.802Z,97876.66
2023-02-02T09:55:51.435Z,97883.13
2023-02-02T09:58:24.070Z,97886.34
2023-02-02T10:00:58.640Z,97890.69
2023-02-02T10:03:36.045Z,97886.22
2023-02-02T10:06:13.859Z,97888.38
2023-02-02T10:08:48.028Z,97889.28
2023-02-02T10:11:35.338Z,97892.22
2023-02-02T10:14:21.105Z,97890.47
2023-02-02T10:16:53.848Z,97892.38
2023-02-02T10:19:29.435Z,97890.53
2023-02-02T10:22:07.017Z,97895.00
2023-02-02T10:24:42.319Z,97900.53
2023-02-02T10:27:17.298Z,97897.97
2023-02-02T10:29:53.900Z,97901.50
2023-02-02T10:32:37.202Z,97896.84
2023-02-02T10:35:23.349Z,97893.09
2023-02-02T10:38:00.962Z,97891.91
2023-02-02T10:40:45.655Z,97883.25
2023-02-02T10:43:50.435Z,97894.75
2023-02-02T10:46:26.752Z,97892.47
2023-02-02T10:49:12.804Z,97895.00
2023-02-02T10:51:44.178Z,97887.72
2023-02-02T10:54:50.024Z,97880.34
2023-02-02T10:57:35.172Z,97879.56
2023-02-02T11:00:22.323Z,97877.66
2023-02-02T11:02:53.949Z,97876.09
2023-02-02T11:05:59.811Z,97878.25
2023-02-02T11:08:35.548Z,97875.25
2023-02-02T11:11:14.554Z,97874.66
2023-02-02T11:13:48.595Z,97875.06
2023-02-02T11:16:38.809Z,97868.41
2023-02-02T11:19:29.995Z,97858.69
2023-02-02T11:22:01.804Z,97866.59
2023-02-02T11:24:37.217Z,97859.28
2023-02-02T11:27:16.104Z,97852.56
2023-02-02T11:29:49.891Z,97842.69
2023-02-02T11:32:28.150Z,97840.53
2023-02-02T11:35:21.141Z,97842.44
2023-02-02T11:38:10.890Z,97838.63
2023-02-02T11:40:44.679Z,97827.66
2023-02-02T11:43:21.351Z,97834.19
2023-02-02T11:46:02.593Z,97837.28
2023-02-02T11:48:39.645Z,97824.81
2023-02-02T11:51:13.278Z,97832.16
2023-02-02T11:53:49.421Z,97828.78
2023-02-02T11:56:22.361Z,97825.84
2023-02-02T11:58:55.829Z,97825.88
2023-02-02T12:01:30.539Z,97822.34
2023-02-02T12:04:25.869Z,97819.88
2023-02-02T12:06:57.299Z,97821.19
2023-02-02T12:09:28.923Z,97813.31
2023-02-02T12:12:04.085Z,97822.56
2023-02-02T12:14:40.653Z,97814.00
2023-02-02T12:17:24.149Z,97816.91
2023-02-02T12:20:25.731Z,97821.06
2023-02-02T12:23:27.039Z,97808.38
2023-02-02T12:26:21.186Z,97815.19
2023-02-02T12:29:02.257Z,97818.00
2023-02-02T12:31:42.101Z,97814.06
2023-02-02T12:34:18.258Z,97816.59
2023-02-02T12:36:56.179Z,97816.69
2023-02-02T12:39:36.468Z,97814.78
2023-02-02T12:42:28.722Z,97812.59
2023-02-02T12:45:25.365Z,97814.63
2023-02-02T12:48:06.957Z,97804.13
2023-02-02T12:50:43.568Z,97808.09
2023-02-02T12:53:30.885Z,97809.38
2023-02-02T12:56:06.448Z,97816.34
2023-02-02T12:58:43.924Z,97800.22
2023-02-02T13:01:26.933Z,97802.75
2023-02-02T13:04:15.803Z,97797.44
2023-02-02T13:07:28.893Z,97791.88
2023-02-02T13:10:18.942Z,97799.91
2023-02-02T13:12:54.717Z,97798.22
2023-02-02T13:15:29.066Z,97799.47
2023-02-02T13:18:01.892Z,97798.94
2023-02-02T13:20:39.768Z,97804.25
2023-02-02T13:23:13.947Z,97801.13
2023-02-02T13:25:51.216Z,97802.28
2023-02-02T13:28:34.814Z,97796.25
2023-02-02T13:31:10.842Z,97790.63
2023-02-02T13:33:42.933Z,97797.47
2023-02-02T13:36:26.093Z,97803.91
2023-02-02T13:38:59.484Z,97795.03
2023-02-02T13:41:32.740Z,97803.13
2023-02-02T13:44:07.641Z,97802.47
2023-02-02T13:46:41.587Z,97804.91
2023-02-02T13:49:17.933Z,97801.31
2023-02-02T13:52:00.521Z,97799.66
2023-02-02T13:55:16.054Z,97814.81
2023-02-02T14:00:42.732Z,97804.53
2023-02-02T14:03:29.880Z,97804.91
2023-02-02T14:06:10.103Z,97807.34
2023-02-02T14:08:47.616Z,97819.88
2023-02-02T14:11:26.238Z,97816.00
2023-02-02T14:14:18.631Z,97815.66
2023-02-02T14:16:51.731Z,97813.44
2023-02-02T14:19:49.981Z,97818.28
2023-02-02T14:22:45.297Z,97821.81
2023-02-02T14:25:55.828Z,97826.50
2023-02-02T14:28:44.715Z,97822.22
2023-02-02T14:31:43.547Z,97818.22
2023-02-02T14:34:34.002Z,97822.81
2023-02-02T14:37:22.635Z,97827.22
2023-02-02T14:39:59.083Z,97821.03
2023-02-02T14:42:51.680Z,97824.56
2023-02-02T14:45:32.298Z,97835.00
2023-02-02T14:48:05.298Z,97827.78
2023-02-02T14:50:46.466Z,97841.09
2023-02-02T14:53:24.634Z,97839.13
2023-02-02T14:56:11.059Z,97836.41
2023-02-02T14:58:44.164Z,97846.88
2023-02-02T15:01:27.549Z,97841.50
2023-02-02T15:04:20.121Z,97832.06
2023-02-02T15:06:51.398Z,97830.97
2023-02-02T15:09:40.726Z,97822.22
2023-02-02T15:12:39.099Z,97831.81
2023-02-02T15:15:19.291Z,97829.97
2023-02-02T15:18:03.266Z,97850.47
2023-02-02T15:20:40.274Z,97835.28
2023-02-02T15:23:22.854Z,97851.72
2023-02-02T15:25:56.027Z,97849.91
2023-02-02T15:28:39.530Z,97850.59
2023-02-02T15:31:17.642Z,97850.88
2023-02-02T15:33:52.648Z,97857.75
2023-02-02T15:36:27.339Z,97865.38
2023-02-02T15:39:03.394Z,97860.38
2023-02-02T15:41:36.050Z,97877.78
2023-02-02T15:44:21.514Z,97881.94
2023-02-02T15:46:52.751Z,97875.81
2023-02-02T15:49:35.138Z,97877.88
2023-02-02T15:52:17.143Z,97882.56
2023-02-02T15:54:54.134Z,97885.94
2023-02-02T15:57:33.628Z,97895.28
2023-02-02T16:00:26.633Z,97901.19
2023-02-02T16:03:02.054Z,97894.03
2023-02-02T16:05:46.324Z,97910.16
2023-02-02T16:08:22.208Z,97924.28
2023-02-02T16:10:54.097Z,97909.56
2023-02-02T16:13:29.052Z,97910.53
2023-02-02T16:16:01.200Z,97915.81
2023-02-02T16:18:43.198Z,97917.88
2023-02-02T16:21:29.125Z,97931.75
2023-02-02T16:24:03.844Z,97931.88
2023-02-02T16:26:44.165Z,97928.72
2023-02-02T16:29:17.704Z,97938.28
2023-02-02T16:31:59.746Z,97938.66
2023-02-02T16:34:52.814Z,97952.38
2023-02-02T16:37:27.993Z,97958.38
2023-02-02T16:40:15.577Z,97950.69
2023-02-02T16:42:48.284Z,97955.97
2023-02-02T16:45:37.164Z,97957.97
2023-02-02T16:48:29.409Z,97955.06
2023-02-02T16:51:29.008Z,97954.63
2023-02-02T16:54:12.875Z,97971.19
2023-02-02T16:56:52.259Z,97969.63
2023-02-02T16:59:35.253Z,97974.31
2023-02-02T17:02:29.894Z,97976.81
2023-02-02T17:05:04.959Z,97973.75
2023-02-02T17:07:39.600Z,97993.13
2023-02-02T17:10:24.803Z,98003.44
2023-02-02T17:12:56.531Z,98006.91
2023-02-02T17:15:33.408Z,98013.38
2023-02-02T17:18:06.404Z,98024.09
2023-02-02T17:20:37.090Z,98028.06
2023-02-02T17:23:10.965Z,98036.53
2023-02-02T17:25:48.812Z,98037.69
2023-02-02T17:28:23.993Z,98044.41
2023-02-02T17:31:00.902Z,98046.19
2023-02-02T17:33:33.993Z,98055.09
2023-02-02T17:36:06.012Z,98054.66
2023-02-02T17:38:36.499Z,98063.00
2023-02-02T17:41:07.558Z,98061.69
2023-02-02T17:43:42.885Z,98073.81
2023-02-02T17:46:15.432Z,98070.09
2023-02-02T17:48:46.796Z,98074.09
2023-02-02T17:51:18.115Z,98078.69
2023-02-02T17:53:48.519Z,98085.53
2023-02-02T17:56:18.891Z,98088.03
2023-02-02T17:58:51.679Z,98097.94
2023-02-02T18:01:22.116Z,98102.78
2023-02-02T18:03:52.799Z,98108.59
2023-02-02T18:06:24.206Z,98115.81
2023-02-02T18:08:55.114Z,98119.13
2023-02-02T18:11:26.033Z,98114.66
2023-02-02T18:13:57.401Z,98123.16
2023-02-02T18:16:28.558Z,98125.00
2023-02-02T18:18:59.228Z,98126.69
2023-02-02T18:21:30.368Z,98136.16
2023-02-02T18:24:04.698Z,98145.72
2023-02-02T18:26:35.801Z,98144.81
2023-02-02T18:29:08.215Z,98150.91
2023-02-02T18:31:40.644Z,98156.28
2023-02-02T18:34:13.015Z,98154.38
2023-02-02T18:36:42.964Z,98168.41
2023-02-02T18:39:13.768Z,98173.34
2023-02-02T18:41:44.230Z,98173.00
2023-02-02T18:44:17.577Z,98176.16
2023-02-02T18:46:48.700Z,98176.16
2023-02-02T18:49:19.074Z,98181.91
2023-02-02T18:51:49.948Z,98188.00
2023-02-02T18:54:20.269Z,98190.47
2023-02-02T18:56:50.552Z,98185.63
2023-02-02T18:59:23.169Z,98187.63
2023-02-02T19:01:53.387Z,98189.44
2023-02-02T19:04:24.166Z,98194.31
2023-02-02T19:07:11.564Z,98195.69
2023-02-02T19:09:41.715Z,98203.78
2023-02-02T19:12:15.298Z,98199.41
2023-02-02T19:14:47.799Z,98206.50
2023-02-02T19:17:24.965Z,98200.19
2023-02-02T19:19:55.293Z,98208.84
2023-02-02T19:22:30.588Z,98207.84
2023-02-02T19:25:01.363Z,98212.88
2023-02-02T19:27:33.118Z,98215.34
2023-02-02T19:30:06.267Z,98215.13
2023-02-02T19:32:37.772Z,98223.47
2023-02-02T19:35:21.831Z,98230.88
2023-02-02T19:37:53.930Z,98219.81
2023-02-02T19:40:27.002Z,98222.59
2023-02-02T19:42:59.549Z,98233.44
2023-02-02T19:45:34.739Z,98240.06
2023-02-02T19:48:17.388Z,98245.03
2023-02-02T19:50:48.763Z,98242.78
2023-02-02T19:53:23.541Z,98250.81
2023-02-02T19:55:54.330Z,98244.91
2023-02-02T19:58:26.398Z,98246.66
2023-02-02T20:01:07.034Z,98264.13
2023-02-02T20:03:45.924Z,98260.34
2023-02-02T20:06:22.636Z,98266.19
2023-02-02T20:08:52.947Z,98254.09
2023-02-02T20:11:32.540Z,98267.38
2023-02-02T20:14:11.246Z,98272.91
2023-02-02T20:16:45.738Z,98267.13
2023-02-02T20:19:19.136Z,98281.34
2023-02-02T20:21:52.393Z,98277.03
2023-02-02T20:24:25.926Z,98279.78
2023-02-02T20:26:57.728Z,98278.00
2023-02-02T20:29:29.721Z,98285.81
2023-02-02T20:32:01.957Z,98294.94
2023-02-02T20:34:35.319Z,98304.25
2023-02-02T20:37:18.449Z,98302.47
2023-02-02T20:39:50.894Z,98299.50
2023-02-02T20:42:21.602Z,98300.53
2023-02-02T20:44:52.179Z,98307.81
2023-02-02T20:47:24.910Z,98318.06
2023-02-02T20:49:57.850Z,98319.06
2023-02-02T20:52:31.358Z,98318.59
2023-02-02T20:55:01.319Z,98319.22
2023-02-02T20:57:32.973Z,98312.16
2023-02-02T21:00:03.603Z,98311.31
2023-02-02T21:02:36.148Z,98312.72
2023-02-02T21:05:07.514Z,98316.63
2023-02-02T21:07:37.991Z,98317.97
2023-02-02T21:10:08.929Z,98310.47
2023-02-02T21:12:39.104Z,98321.03
2023-02-02T21:15:11.116Z,98309.38
2023-02-02T21:17:44.376Z,98327.34
2023-02-02T21:20:16.495Z,98327.75
2023-02-02T21:22:46.467Z,98334.88
2023-02-02T21:25:16.812Z,98324.94
2023-02-02T21:27:47.650Z,98323.38
2023-02-02T21:30:18.179Z,98348.56
2023-02-02T21:32:51.014Z,98335.06
2023-02-02T21:35:21.545Z,98347.19
2023-02-02T21:37:55.903Z,98347.09
2023-02-02T21:40:30.169Z,98349.69
2023-02-02T21:43:02.154Z,98349.09
2023-02-02T21:45:37.637Z,98328.91
2023-02-02T21:48:25.528Z,98356.50
2023-02-02T21:50:56.090Z,98360.34
2023-02-02T21:53:27.178Z,98348.72
2023-02-02T21:55:59.892Z,98358.75
2023-02-02T21:58:36.162Z,98372.28
2023-02-02T22:01:23.442Z,98367.50
2023-02-02T22:03:56.140Z,98376.25
2023-02-02T22:06:31.731Z,98375.38
2023-02-02T22:09:08.462Z,98379.03
2023-02-02T22:11:45.097Z,98377.81
2023-02-02T22:14:22.816Z,98375.13
2023-02-02T22:16:56.472Z,98378.00
2023-02-02T22:19:34.504Z,98386.22
2023-02-02T22:22:17.971Z,98380.78
2023-02-02T22:24:53.564Z,98382.81
2023-02-02T22:27:28.705Z,98385.16
2023-02-02T22:30:02.655Z,98381.63
2023-02-02T22:32:33.993Z,98378.28
2023-02-02T22:35:06.119Z,98383.28
2023-02-02T22:37:36.533Z,98380.50
2023-02-02T22:40:07.214Z,98386.19
2023-02-02T22:42:37.666Z,98379.88
2023-02-02T22:45:08.537Z,98388.38
2023-02-02T22:47:39.073Z,98395.50
2023-02-02T22:50:12.980Z,98396.00
2023-02-02T22:52:43.467Z,98396.72
2023-02-02T22:55:14.776Z,98399.47
2023-02-02T22:57:45.059Z,98405.97
2023-02-02T23:00:17.919Z,98403.47
2023-02-02T23:02:49.121Z,98397.00
2023-02-02T23:05:22.896Z,98399.25
2023-02-02T23:07:54.063Z,98398.25
2023-02-02T23:10:26.885Z,98397.88
2023-02-02T23:13:01.857Z,98390.38
2023-02-02T23:15:32.927Z,98394.09
2023-02-02T23:18:03.310Z,98399.72
2023-02-02T23:20:36.033Z,98384.59
2023-02-02T23:23:06.536Z,98382.09
2023-02-02T23:25:37.462Z,98389.78
2023-02-02T23:28:10.878Z,98388.31
2023-02-02T23:30:41.204Z,98386.75
2023-02-02T23:33:11.297Z,98389.16
2023-02-02T23:35:43.641Z,98392.47
2023-02-02T23:38:14.344Z,98395.13
2023-02-02T23:40:44.750Z,98387.25
2023-02-02T23:43:14.893Z,98394.19
2023-02-02T23:45:45.237Z,98389.38
2023-02-02T23:48:15.879Z,98402.25
2023-02-02T23:50:47.999Z,98393.56
2023-02-02T23:53:18.670Z,98399.19
2023-02-02T23:55:50.507Z,98406.66
2023-02-02T23:58:21.468Z,98404.59
